Tropical Cyclones
[Index]
Main Index Home Page Stock Weather Photos Extreme Storms Discussion Storm News and Storm Chasing Reports Tropical Cyclones / Hurricanes / Typhoons Weather Data and Links Wild Fires / Bushfires Weather Observation Techniques Weather Picture Catalogue Tornado Pictures and Reports Stock Video Footage and DVDs for sale
Season 2017-2018 Tropical Cyclone LINDA Track Map
Season 2017-2018 Summaries (Operational Data): [AU] [SIO] [SPAC] [SH]
<<- Previous TC | 2017-2018 Season | Next TC ->>

click for intensity scale information  Lat/long Grid: Show Hide

 Date Labels: Show Hide

Operational Tropical Cyclone Data : JTWC Advisories

Name: LINDA
Number: 1813

08 Mar 2018 12:00 UTC to 15 Mar 2018 18:00 UTC

    date/time    lat    long     hPa   cat  kts
2018-03-08 12    3.2   158.9    1010         15          
2018-03-08 18    2.9   158.5    1010         15          
2018-03-09 00    3.5   158.6    1010         15          
2018-03-09 06    4.0   158.9    1010         15          
2018-03-09 12    4.6   159.0    1006         15          
2018-03-09 18    4.7   159.4    1005         15          
2018-03-10 00    4.7   159.9    1010         15          
2018-03-10 06    5.2   160.4    1010         15          
2018-03-10 12    6.4   160.6    1010         15          
2018-03-10 18    7.2   159.7    1005         20          
2018-03-11 00    8.5   159.0    1007         20          
2018-03-11 06    9.6   160.6    1007         20          
2018-03-11 12   10.8   160.4    1007         20          
2018-03-11 18   11.6   160.3    1000         20          
2018-03-12 00   12.6   159.8    1004         25          
2018-03-12 06   14.5   159.9    1000         30          
2018-03-12 12   15.7   159.9     998    1    35          
2018-03-12 18   16.6   160.0    1001    1    35          
2018-03-13 00   17.6   160.0     993    1    40          
2018-03-13 06   18.9   159.8     994    1    45          
2018-03-13 12   20.8   158.8     985    2    50          
2018-03-13 18   21.6   157.8     990    2    50          
2018-03-14 00   21.8   157.0     989    1    45          
2018-03-14 06   22.6   156.5     993    1    40          
2018-03-14 12   22.9   156.3     996    1    35          
2018-03-14 18   23.2   156.2    1004         25          
2018-03-15 00   23.8   156.3    1002         25          
2018-03-15 06   24.4   156.5    1006         20          
2018-03-15 12   25.1   157.0    1007         20          
2018-03-15 18   26.6   157.6    1007         20          
Winds are 10-min average.

Tropical cyclone tracks developed by Michael Bath using operational warnings and advisories and Google Maps.


[Australian Severe Weather index] [Copyright Notice] [Email Contacts] [Search This Site] [Privacy Policy]
Document: tropical_cyclone_linda.htm Updated: 11 March 2020